SWA2281 KSAN-KSJC
Flight info
| Callsign | SWA2281 |
|---|---|
| Flight time | N/A |
| Altitude | 32000 |
| Route | PADRZ2 IKAYE TESEA SCTRR TROXX SILCN6 |
| Aircraft | B738/M-SDE2E3FGHIRWXY/LB1 |
Departure
| Time | 2026-05-05 00:40 |
|---|---|
| Airport | San Diego International Airport (KSAN) |
Arrival
| Time | N/A |
|---|---|
| Airport | Norman Y. Mineta San Jose International Airport (KSJC) |
| Time | Latitude | Longitude | Altitude | Speed | Heading |
|---|---|---|---|---|---|
| 2026-05-05 00:21 | 32.73380 | -117.19814 | 25 ft | 0 kts | 207° |
| 2026-05-05 00:30 | 32.73398 | -117.19803 | 23 ft | 4 kts | 207° |
| 2026-05-05 00:31 | 32.73422 | -117.19788 | 23 ft | 3 kts | 207° |
| 2026-05-05 00:31 | 32.73439 | -117.19779 | 23 ft | 4 kts | 170° |
| 2026-05-05 00:31 | 32.73453 | -117.19793 | 23 ft | 4 kts | 106° |
| 2026-05-05 00:31 | 32.73458 | -117.19814 | 26 ft | 0 kts | 106° |
| 2026-05-05 00:34 | 32.73457 | -117.19811 | 24 ft | 2 kts | 106° |
| 2026-05-05 00:34 | 32.73441 | -117.19746 | 22 ft | 14 kts | 106° |
| 2026-05-05 00:34 | 32.73412 | -117.19625 | 23 ft | 16 kts | 106° |
| 2026-05-05 00:35 | 32.73380 | -117.19492 | 23 ft | 19 kts | 106° |
| 2026-05-05 00:35 | 32.73341 | -117.19333 | 21 ft | 21 kts | 105° |
| 2026-05-05 00:35 | 32.73298 | -117.19152 | 23 ft | 23 kts | 106° |
| 2026-05-05 00:35 | 32.73254 | -117.18972 | 23 ft | 22 kts | 105° |
| 2026-05-05 00:36 | 32.73211 | -117.18796 | 23 ft | 22 kts | 106° |
| 2026-05-05 00:36 | 32.73170 | -117.18625 | 23 ft | 22 kts | 106° |
| 2026-05-05 00:36 | 32.73126 | -117.18445 | 23 ft | 23 kts | 106° |
| 2026-05-05 00:36 | 32.73083 | -117.18266 | 22 ft | 22 kts | 106° |
| 2026-05-05 00:37 | 32.73041 | -117.18092 | 22 ft | 22 kts | 106° |
| 2026-05-05 00:37 | 32.73000 | -117.17924 | 23 ft | 21 kts | 106° |
| 2026-05-05 00:37 | 32.72965 | -117.17790 | 22 ft | 14 kts | 108° |
| 2026-05-05 00:37 | 32.72952 | -117.17695 | 21 ft | 9 kts | 79° |
| 2026-05-05 00:38 | 32.72955 | -117.17679 | 21 ft | 0 kts | 73° |
| 2026-05-05 00:38 | 32.72960 | -117.17660 | 23 ft | 7 kts | 73° |
| 2026-05-05 00:39 | 32.72996 | -117.17598 | 23 ft | 10 kts | 19° |
| 2026-05-05 00:39 | 32.73038 | -117.17655 | 21 ft | 11 kts | 285° |
| 2026-05-05 00:39 | 32.73099 | -117.17908 | 21 ft | 67 kts | 286° |
| 2026-05-05 00:39 | 32.73295 | -117.18722 | 17 ft | 135 kts | 286° |
| 2026-05-05 00:40 | 32.73599 | -117.19969 | 337 ft | 165 kts | 283° |
| 2026-05-05 00:40 | 32.73916 | -117.21279 | 1222 ft | 169 kts | 287° |
| 2026-05-05 00:40 | 32.74555 | -117.22568 | 1558 ft | 196 kts | 306° |
| 2026-05-05 00:40 | 32.75431 | -117.23872 | 1909 ft | 211 kts | 303° |
| 2026-05-05 00:41 | 32.76288 | -117.25370 | 2217 ft | 227 kts | 301° |
| 2026-05-05 00:41 | 32.77205 | -117.27011 | 2538 ft | 248 kts | 302° |
| 2026-05-05 00:41 | 32.78178 | -117.28734 | 3258 ft | 253 kts | 302° |
| 2026-05-05 00:41 | 32.79162 | -117.30465 | 4096 ft | 254 kts | 302° |
| 2026-05-05 00:42 | 32.80164 | -117.32199 | 4944 ft | 255 kts | 304° |
| 2026-05-05 00:42 | 32.81236 | -117.33886 | 5768 ft | 257 kts | 306° |
| 2026-05-05 00:42 | 32.82339 | -117.35579 | 6567 ft | 260 kts | 306° |
| 2026-05-05 00:42 | 32.83457 | -117.37291 | 7257 ft | 265 kts | 306° |
| 2026-05-05 00:43 | 32.84593 | -117.39039 | 7967 ft | 269 kts | 305° |
| 2026-05-05 00:43 | 32.85741 | -117.40811 | 8698 ft | 272 kts | 304° |
| 2026-05-05 00:43 | 32.86901 | -117.42607 | 9407 ft | 276 kts | 303° |
| 2026-05-05 00:43 | 32.88080 | -117.44434 | 10104 ft | 280 kts | 303° |
| 2026-05-05 00:44 | 32.89296 | -117.46327 | 10399 ft | 299 kts | 303° |
| 2026-05-05 00:44 | 32.90602 | -117.48363 | 10581 ft | 320 kts | 303° |
| 2026-05-05 00:44 | 32.91983 | -117.50512 | 10976 ft | 332 kts | 303° |
| 2026-05-05 00:44 | 32.93395 | -117.52704 | 11605 ft | 335 kts | 303° |
| 2026-05-05 00:45 | 32.94801 | -117.54890 | 12300 ft | 338 kts | 303° |
| 2026-05-05 00:45 | 32.96234 | -117.57122 | 13001 ft | 341 kts | 302° |
| 2026-05-05 00:45 | 32.97700 | -117.59408 | 13716 ft | 344 kts | 302° |
| 2026-05-05 00:45 | 32.99160 | -117.61688 | 14375 ft | 348 kts | 302° |
| 2026-05-05 00:46 | 33.00614 | -117.63959 | 15037 ft | 351 kts | 302° |
| 2026-05-05 00:46 | 33.02104 | -117.66287 | 15664 ft | 355 kts | 302° |
| 2026-05-05 00:46 | 33.03610 | -117.68642 | 16317 ft | 359 kts | 302° |
| 2026-05-05 00:46 | 33.05128 | -117.71017 | 16982 ft | 362 kts | 302° |
| 2026-05-05 00:47 | 33.06702 | -117.73380 | 17623 ft | 369 kts | 308° |
| 2026-05-05 00:47 | 33.08620 | -117.75470 | 18260 ft | 377 kts | 315° |
| 2026-05-05 00:47 | 33.10664 | -117.77458 | 18831 ft | 380 kts | 315° |
| 2026-05-05 00:47 | 33.12719 | -117.79456 | 19436 ft | 381 kts | 314° |
| 2026-05-05 00:48 | 33.14760 | -117.81483 | 20039 ft | 383 kts | 313° |
| 2026-05-05 00:48 | 33.16797 | -117.83544 | 20624 ft | 384 kts | 312° |
| 2026-05-05 00:48 | 33.18835 | -117.85621 | 21197 ft | 386 kts | 311° |
| 2026-05-05 00:48 | 33.20831 | -117.87766 | 21760 ft | 386 kts | 308° |
| 2026-05-05 00:49 | 33.22748 | -117.90009 | 22310 ft | 387 kts | 306° |
| 2026-05-05 00:49 | 33.24642 | -117.92299 | 22886 ft | 388 kts | 305° |
| 2026-05-05 00:49 | 33.26540 | -117.94610 | 23490 ft | 390 kts | 305° |
| 2026-05-05 00:49 | 33.28448 | -117.96928 | 23964 ft | 392 kts | 305° |
| 2026-05-05 00:50 | 33.30376 | -117.99261 | 24334 ft | 396 kts | 304° |
| 2026-05-05 00:50 | 33.32326 | -118.01612 | 24698 ft | 400 kts | 304° |
| 2026-05-05 00:50 | 33.34299 | -118.03983 | 25085 ft | 404 kts | 304° |
| 2026-05-05 00:50 | 33.36292 | -118.06374 | 25472 ft | 407 kts | 304° |
| 2026-05-05 00:51 | 33.38300 | -118.08779 | 25844 ft | 411 kts | 304° |
| 2026-05-05 00:51 | 33.40329 | -118.11212 | 26162 ft | 415 kts | 304° |
| 2026-05-05 00:51 | 33.42352 | -118.13637 | 26546 ft | 418 kts | 304° |
| 2026-05-05 00:51 | 33.44411 | -118.16104 | 26918 ft | 420 kts | 303° |
| 2026-05-05 00:52 | 33.46480 | -118.18587 | 27272 ft | 423 kts | 303° |
| 2026-05-05 00:52 | 33.48563 | -118.21087 | 27661 ft | 424 kts | 303° |
| 2026-05-05 00:52 | 33.50648 | -118.23590 | 28161 ft | 424 kts | 303° |
| 2026-05-05 00:52 | 33.52724 | -118.26080 | 28714 ft | 422 kts | 302° |
| 2026-05-05 00:53 | 33.54796 | -118.28570 | 29223 ft | 421 kts | 302° |
| 2026-05-05 00:53 | 33.56861 | -118.31056 | 29706 ft | 421 kts | 301° |
| 2026-05-05 00:53 | 33.58924 | -118.33544 | 30177 ft | 420 kts | 301° |
| 2026-05-05 00:53 | 33.60984 | -118.36029 | 30574 ft | 419 kts | 301° |
| 2026-05-05 00:54 | 33.63038 | -118.38510 | 30958 ft | 420 kts | 302° |
| 2026-05-05 00:54 | 33.65093 | -118.40995 | 31309 ft | 419 kts | 302° |
| 2026-05-05 00:54 | 33.67148 | -118.43479 | 31687 ft | 418 kts | 302° |
| 2026-05-05 00:54 | 33.69197 | -118.45957 | 32035 ft | 419 kts | 302° |
| 2026-05-05 00:55 | 33.71261 | -118.48463 | 32023 ft | 424 kts | 302° |
| 2026-05-05 00:55 | 33.75409 | -118.53492 | 32039 ft | 420 kts | 302° |
| 2026-05-05 00:56 | 33.79495 | -118.58439 | 32061 ft | 417 kts | 302° |
| 2026-05-05 00:56 | 33.83581 | -118.63415 | 32036 ft | 419 kts | 302° |
| 2026-05-05 00:57 | 33.86986 | -118.67561 | 32067 ft | 418 kts | 302° |
| 2026-05-05 00:57 | 33.91082 | -118.72555 | 32041 ft | 419 kts | 302° |
| 2026-05-05 00:58 | 33.95173 | -118.77548 | 32034 ft | 418 kts | 302° |
| 2026-05-05 00:58 | 33.99252 | -118.82533 | 32034 ft | 417 kts | 302° |